createdAt,value
2019-05-30T00:00:08.822Z,94.27
2019-05-30T00:02:23.339Z,94.77
2019-05-30T00:04:51.889Z,91.10
2019-05-30T00:07:20.555Z,93.07
2019-05-30T00:09:48.858Z,93.23
2019-05-30T00:12:17.423Z,98.67
2019-05-30T00:14:46.204Z,96.60
2019-05-30T00:17:14.522Z,94.10
2019-05-30T00:19:45.677Z,91.70
2019-05-30T00:22:14.317Z,89.03
2019-05-30T00:24:42.892Z,92.07
2019-05-30T00:27:11.482Z,105.40
2019-05-30T00:29:39.804Z,99.00
2019-05-30T00:32:08.444Z,143.60
2019-05-30T00:34:39.395Z,120.77
2019-05-30T00:37:09.563Z,99.87
2019-05-30T00:39:38.300Z,104.10
2019-05-30T00:42:10.671Z,113.17
2019-05-30T00:44:39.071Z,108.67
2019-05-30T00:47:07.376Z,107.17
2019-05-30T00:49:35.748Z,106.33
2019-05-30T00:52:05.054Z,99.37
2019-05-30T00:54:33.883Z,93.67
2019-05-30T00:57:02.755Z,118.70
2019-05-30T00:59:31.295Z,116.03
2019-05-30T01:02:00.691Z,140.33
2019-05-30T01:04:29.128Z,115.67
2019-05-30T01:06:58.847Z,83.27
2019-05-30T01:09:27.694Z,98.57
2019-05-30T01:11:57.011Z,76.03
2019-05-30T01:14:25.359Z,97.17
2019-05-30T01:16:53.651Z,88.13
2019-05-30T01:19:22.298Z,91.30
2019-05-30T01:21:51.828Z,77.37
2019-05-30T01:24:20.128Z,78.43
2019-05-30T01:26:48.763Z,65.53
2019-05-30T01:29:17.065Z,64.30
2019-05-30T01:31:45.415Z,62.33
2019-05-30T01:34:13.724Z,55.43
2019-05-30T01:36:42.023Z,53.77
2019-05-30T01:39:10.334Z,50.83
2019-05-30T01:41:38.939Z,45.93
2019-05-30T01:44:08.355Z,44.87
2019-05-30T01:46:36.840Z,37.87
2019-05-30T01:49:06.707Z,39.87
2019-05-30T01:51:35.150Z,37.40
2019-05-30T01:54:04.585Z,37.67
2019-05-30T01:56:33.048Z,34.33
2019-05-30T01:59:02.575Z,36.87
2019-05-30T02:01:31.305Z,31.73
2019-05-30T02:04:00.951Z,30.43
2019-05-30T02:06:29.575Z,31.63
2019-05-30T02:08:59.020Z,28.40
2019-05-30T02:11:27.727Z,26.77
2019-05-30T02:13:56.019Z,26.23
2019-05-30T02:16:24.323Z,24.63
2019-05-30T02:18:52.915Z,23.93
2019-05-30T02:21:21.222Z,24.73
2019-05-30T02:23:49.528Z,22.73
2019-05-30T02:26:18.152Z,22.73
2019-05-30T02:28:46.454Z,21.37
2019-05-30T02:31:14.741Z,19.27
2019-05-30T02:33:43.041Z,21.27
2019-05-30T02:36:12.659Z,18.93
2019-05-30T02:38:43.231Z,18.67
2019-05-30T02:41:12.528Z,18.80
2019-05-30T02:43:44.096Z,19.07
2019-05-30T02:46:12.743Z,17.03
2019-05-30T02:48:57.150Z,15.83
2019-05-30T02:51:12.752Z,15.17
2019-05-30T02:53:41.247Z,14.87
2019-05-30T02:56:10.205Z,15.93
2019-05-30T02:58:39.654Z,14.60
2019-05-30T03:01:09.217Z,15.00
2019-05-30T03:03:42.597Z,14.70
2019-05-30T03:06:13.527Z,13.67
2019-05-30T03:08:43.656Z,14.03
2019-05-30T03:11:15.047Z,12.50
2019-05-30T03:13:42.000Z,12.10
2019-05-30T03:16:11.814Z,11.40
2019-05-30T03:18:40.311Z,11.20
2019-05-30T03:21:10.562Z,10.50
2019-05-30T03:23:38.962Z,10.60
2019-05-30T03:26:10.139Z,10.10
2019-05-30T03:28:37.343Z,9.77
2019-05-30T03:31:14.228Z,8.77
2019-05-30T03:33:41.362Z,10.40
2019-05-30T03:36:14.448Z,9.33
2019-05-30T03:38:36.263Z,8.80
2019-05-30T03:41:05.152Z,8.57
2019-05-30T03:43:36.227Z,9.40
2019-05-30T03:46:08.750Z,8.67
2019-05-30T03:48:37.967Z,8.10
2019-05-30T03:51:08.864Z,8.57
2019-05-30T03:53:36.885Z,8.00
2019-05-30T03:56:09.333Z,7.77
2019-05-30T03:59:05.792Z,7.40
2019-05-30T04:02:03.876Z,7.83
2019-05-30T04:04:41.261Z,6.97
2019-05-30T04:07:19.540Z,7.47
2019-05-30T04:09:48.074Z,6.90
2019-05-30T04:12:22.430Z,6.83
2019-05-30T04:14:51.900Z,7.10
2019-05-30T04:17:20.209Z,6.77
2019-05-30T04:19:48.845Z,6.57
2019-05-30T04:22:17.426Z,6.73
2019-05-30T04:24:46.030Z,6.60
2019-05-30T04:27:15.963Z,6.37
2019-05-30T04:29:44.485Z,6.07
2019-05-30T04:32:14.320Z,6.33
2019-05-30T04:34:42.751Z,6.53
2019-05-30T04:37:12.553Z,6.00
2019-05-30T04:39:40.940Z,6.17
2019-05-30T04:42:13.651Z,5.93
2019-05-30T04:44:42.153Z,5.87
2019-05-30T04:47:14.283Z,6.10
2019-05-30T04:49:43.314Z,5.77
2019-05-30T04:52:16.252Z,5.90
2019-05-30T04:54:41.912Z,5.90
2019-05-30T04:57:10.762Z,5.33
2019-05-30T04:59:39.576Z,5.90
2019-05-30T05:02:07.880Z,5.20
2019-05-30T05:04:36.551Z,5.70
2019-05-30T05:07:05.144Z,5.17
2019-05-30T05:09:33.441Z,5.40
2019-05-30T05:12:02.700Z,5.50
2019-05-30T05:14:31.073Z,5.10
2019-05-30T05:16:59.391Z,4.77
2019-05-30T05:19:27.668Z,5.03
2019-05-30T05:21:56.237Z,5.20
2019-05-30T05:24:25.033Z,5.03
2019-05-30T05:26:53.710Z,5.20
2019-05-30T05:29:22.291Z,5.27
2019-05-30T05:31:50.610Z,5.30
2019-05-30T05:34:19.256Z,4.60
2019-05-30T05:36:47.847Z,4.93
2019-05-30T05:39:16.424Z,4.47
2019-05-30T05:41:44.732Z,5.00
2019-05-30T05:44:13.379Z,5.03
2019-05-30T05:46:41.686Z,4.77
2019-05-30T05:49:10.196Z,4.70
2019-05-30T05:51:38.820Z,4.60
2019-05-30T05:54:07.129Z,4.50
2019-05-30T05:56:35.422Z,4.60
2019-05-30T05:59:04.076Z,4.43
2019-05-30T06:01:32.400Z,4.73
2019-05-30T06:04:12.543Z,4.20
2019-05-30T06:06:31.754Z,4.20
2019-05-30T06:09:00.553Z,4.70
2019-05-30T06:11:28.930Z,4.17
2019-05-30T06:13:57.719Z,4.00
2019-05-30T06:16:26.217Z,4.93
2019-05-30T06:18:54.888Z,3.80
2019-05-30T06:21:23.486Z,4.47
2019-05-30T06:23:52.175Z,4.30
2019-05-30T06:26:24.350Z,3.90
2019-05-30T06:28:56.488Z,4.33
2019-05-30T06:31:24.791Z,4.37
2019-05-30T06:33:53.566Z,6.53
2019-05-30T06:36:22.950Z,16.10
2019-05-30T06:38:51.866Z,18.70
2019-05-30T06:41:20.167Z,18.47
2019-05-30T06:43:48.463Z,18.50
2019-05-30T06:46:17.282Z,15.03
2019-05-30T06:48:45.574Z,21.77
2019-05-30T06:51:14.604Z,27.70
2019-05-30T06:53:43.451Z,28.27
2019-05-30T06:56:12.187Z,28.43
2019-05-30T06:58:48.445Z,29.27
2019-05-30T07:01:10.562Z,29.43
2019-05-30T07:03:39.072Z,26.97
2019-05-30T07:06:07.866Z,26.17
2019-05-30T07:08:36.390Z,24.77
2019-05-30T07:11:04.972Z,21.83
2019-05-30T07:13:33.708Z,20.83
2019-05-30T07:16:02.577Z,22.23
2019-05-30T07:18:34.701Z,21.87
2019-05-30T07:21:01.767Z,22.20
2019-05-30T07:23:30.272Z,21.10
2019-05-30T07:25:59.065Z,21.23
2019-05-30T07:28:27.910Z,17.97
2019-05-30T07:30:56.311Z,19.00
2019-05-30T07:33:25.976Z,18.07
2019-05-30T07:35:54.396Z,18.20
2019-05-30T07:38:24.228Z,17.13
2019-05-30T07:40:52.896Z,17.70
2019-05-30T07:43:24.877Z,16.07
2019-05-30T07:45:58.002Z,16.10
2019-05-30T07:48:22.090Z,15.63
2019-05-30T07:50:50.730Z,15.77
2019-05-30T07:53:19.092Z,16.53
2019-05-30T07:55:47.689Z,15.03
2019-05-30T07:58:16.366Z,14.53
2019-05-30T08:00:44.918Z,14.03
2019-05-30T08:03:13.269Z,13.40
2019-05-30T08:05:41.692Z,14.93
2019-05-30T08:08:10.287Z,13.30
2019-05-30T08:10:38.981Z,13.37
2019-05-30T08:13:07.491Z,13.37
2019-05-30T08:15:42.458Z,13.17
2019-05-30T08:18:06.273Z,12.80
2019-05-30T08:20:35.872Z,11.43
2019-05-30T08:23:09.685Z,12.03
2019-05-30T08:25:36.555Z,11.73
2019-05-30T08:28:05.318Z,10.80
2019-05-30T08:30:34.587Z,10.90
2019-05-30T08:33:03.392Z,10.80
2019-05-30T08:35:45.381Z,9.67
2019-05-30T08:38:01.967Z,10.00
2019-05-30T08:40:31.126Z,10.17
2019-05-30T08:42:59.586Z,9.43
2019-05-30T08:45:29.472Z,10.13
2019-05-30T08:47:57.958Z,9.33
2019-05-30T08:50:26.670Z,9.73
2019-05-30T08:52:55.252Z,9.33
2019-05-30T08:55:23.588Z,8.57
2019-05-30T08:57:52.208Z,8.57
2019-05-30T09:00:20.960Z,9.30
2019-05-30T09:02:49.326Z,8.87
2019-05-30T09:05:17.950Z,8.63
2019-05-30T09:07:46.535Z,8.50
2019-05-30T09:10:14.817Z,8.37
2019-05-30T09:12:46.170Z,8.20
2019-05-30T09:15:14.082Z,8.47
2019-05-30T09:17:43.134Z,8.27
2019-05-30T09:20:12.728Z,8.13
2019-05-30T09:22:41.886Z,7.90
2019-05-30T09:25:11.333Z,7.87
2019-05-30T09:30:31.745Z,7.40
2019-05-30T09:33:00.052Z,8.63
2019-05-30T09:35:28.617Z,16.80
2019-05-30T09:37:57.088Z,18.83
2019-05-30T09:40:25.795Z,16.10
2019-05-30T09:42:54.917Z,16.13
2019-05-30T09:45:23.667Z,15.53
2019-05-30T09:47:54.532Z,15.93
2019-05-30T09:50:45.111Z,52.87
2019-05-30T09:53:14.844Z,41.17
2019-05-30T09:55:46.078Z,41.27
2019-05-30T09:58:14.993Z,51.97
2019-05-30T10:00:45.455Z,44.70
2019-05-30T10:03:13.816Z,40.43
2019-05-30T10:05:45.089Z,47.10
2019-05-30T10:08:15.153Z,49.63
2019-05-30T10:10:44.260Z,42.13
2019-05-30T10:13:13.633Z,42.47
2019-05-30T10:15:42.374Z,50.47
2019-05-30T10:18:10.736Z,43.90
2019-05-30T10:20:39.514Z,41.37
2019-05-30T10:23:07.833Z,39.97
2019-05-30T10:25:39.045Z,39.10
2019-05-30T10:28:07.691Z,37.47
2019-05-30T10:30:36.273Z,39.77
2019-05-30T10:33:05.263Z,59.87
2019-05-30T10:35:33.738Z,80.20
2019-05-30T10:38:02.452Z,60.53
2019-05-30T10:40:32.188Z,61.27
2019-05-30T10:43:00.723Z,54.40
2019-05-30T10:45:29.630Z,48.77
2019-05-30T10:47:58.092Z,53.07
2019-05-30T10:50:26.532Z,49.80
2019-05-30T10:52:55.616Z,63.87
2019-05-30T10:55:24.155Z,48.90
2019-05-30T10:57:56.275Z,48.23
2019-05-30T11:00:25.912Z,50.37
2019-05-30T11:02:55.013Z,49.17
2019-05-30T11:05:23.732Z,50.30
2019-05-30T11:08:03.972Z,43.57
2019-05-30T11:10:38.185Z,46.67
2019-05-30T11:13:27.535Z,52.00
2019-05-30T11:15:57.432Z,69.40
2019-05-30T11:18:26.272Z,62.50
2019-05-30T11:20:56.186Z,61.67
2019-05-30T11:23:24.815Z,52.80
2019-05-30T11:25:54.584Z,42.47
2019-05-30T11:28:23.767Z,59.10
2019-05-30T11:30:52.758Z,53.13
2019-05-30T11:33:21.783Z,44.37
2019-05-30T11:35:51.017Z,40.00
2019-05-30T11:38:19.503Z,40.63
2019-05-30T11:40:49.282Z,61.67
2019-05-30T11:43:18.491Z,65.13
2019-05-30T11:45:47.284Z,70.50
2019-05-30T11:48:16.051Z,55.70
2019-05-30T11:50:44.975Z,44.50
2019-05-30T11:53:13.605Z,40.63
2019-05-30T11:56:19.606Z,37.40
2019-05-30T11:58:48.236Z,33.73
2019-05-30T12:01:16.822Z,31.33
2019-05-30T12:03:45.780Z,28.63
2019-05-30T12:06:15.031Z,25.30
2019-05-30T12:08:43.511Z,22.47
2019-05-30T12:11:12.077Z,22.73
2019-05-30T12:13:40.773Z,21.10
2019-05-30T12:16:09.217Z,19.93
2019-05-30T12:18:37.737Z,19.67
2019-05-30T12:21:06.134Z,19.10
2019-05-30T12:23:34.509Z,17.33
2019-05-30T12:26:03.017Z,17.10
2019-05-30T12:28:31.677Z,16.33
2019-05-30T12:31:04.608Z,16.57
2019-05-30T12:33:30.598Z,16.13
2019-05-30T12:35:58.972Z,15.17
2019-05-30T12:38:27.494Z,14.10
2019-05-30T12:40:56.706Z,14.63
2019-05-30T12:43:25.504Z,13.87
2019-05-30T12:45:54.842Z,13.87
2019-05-30T12:48:23.353Z,14.10
2019-05-30T12:50:53.074Z,13.27
2019-05-30T12:53:22.162Z,13.10
2019-05-30T12:55:51.028Z,12.03
2019-05-30T12:58:19.374Z,12.50
2019-05-30T13:01:27.468Z,12.73
2019-05-30T13:03:56.966Z,13.27
2019-05-30T13:06:26.177Z,16.97
2019-05-30T13:08:56.970Z,15.30
2019-05-30T13:11:25.583Z,18.03
2019-05-30T13:13:55.083Z,16.27
2019-05-30T13:16:24.602Z,16.27
2019-05-30T13:18:53.757Z,15.50
2019-05-30T13:21:22.601Z,15.50
2019-05-30T13:23:51.355Z,13.33
2019-05-30T13:26:19.711Z,11.93
2019-05-30T13:28:48.091Z,10.67
2019-05-30T13:31:16.386Z,9.70
2019-05-30T13:33:45.014Z,9.77
2019-05-30T13:36:13.692Z,10.10
2019-05-30T13:38:42.280Z,9.10
2019-05-30T13:41:10.580Z,9.57
2019-05-30T13:43:39.108Z,9.73
2019-05-30T13:46:08.391Z,9.13
2019-05-30T13:48:36.930Z,9.23
2019-05-30T13:51:05.605Z,10.43
2019-05-30T13:53:34.289Z,10.53
2019-05-30T13:56:03.420Z,11.20
2019-05-30T13:58:32.166Z,11.17
2019-05-30T14:01:04.837Z,11.73
2019-05-30T14:03:30.511Z,11.30
2019-05-30T14:05:59.938Z,10.20
2019-05-30T14:08:40.764Z,10.10
2019-05-30T14:10:58.351Z,10.20
2019-05-30T14:13:26.952Z,9.63
2019-05-30T14:15:55.260Z,9.47
2019-05-30T14:18:23.810Z,9.67
2019-05-30T14:20:52.119Z,9.57
2019-05-30T14:23:20.679Z,8.67
2019-05-30T14:25:49.253Z,8.33
2019-05-30T14:28:17.544Z,8.50
2019-05-30T14:30:45.870Z,8.33
2019-05-30T14:33:14.908Z,8.10
2019-05-30T14:35:43.215Z,7.53
2019-05-30T14:38:12.641Z,7.27
2019-05-30T14:40:41.396Z,7.03
2019-05-30T14:43:09.799Z,7.13
2019-05-30T14:45:38.278Z,7.23
2019-05-30T14:48:06.577Z,7.00
2019-05-30T14:50:35.184Z,7.67
2019-05-30T14:53:04.666Z,7.37
2019-05-30T14:55:33.055Z,6.33
2019-05-30T14:58:01.772Z,5.63
2019-05-30T15:00:30.158Z,6.17
2019-05-30T15:02:58.724Z,6.00
2019-05-30T15:05:27.309Z,5.80
2019-05-30T15:07:55.615Z,6.27
2019-05-30T15:10:24.027Z,6.00
2019-05-30T15:12:52.650Z,6.00
2019-05-30T15:15:23.944Z,5.57
2019-05-30T15:17:52.585Z,6.30
2019-05-30T15:20:21.240Z,6.47
2019-05-30T15:22:49.525Z,6.23
2019-05-30T15:25:18.410Z,6.17
2019-05-30T15:27:47.427Z,5.03
2019-05-30T15:30:17.719Z,4.03
2019-05-30T15:32:46.200Z,4.43
2019-05-30T15:35:15.607Z,5.37
2019-05-30T15:37:44.630Z,4.77
2019-05-30T15:40:13.215Z,5.10
2019-05-30T15:42:41.540Z,5.37
2019-05-30T15:45:10.264Z,18.70
2019-05-30T15:47:38.578Z,46.40
2019-05-30T15:50:06.892Z,82.23
2019-05-30T15:52:36.790Z,35.53
2019-05-30T15:55:06.923Z,33.60
2019-05-30T15:57:35.343Z,28.60
2019-05-30T16:00:06.661Z,25.30
2019-05-30T16:02:34.960Z,24.00
2019-05-30T16:05:04.220Z,20.67
2019-05-30T16:07:32.667Z,27.43
2019-05-30T16:10:00.952Z,38.67
2019-05-30T16:12:29.724Z,33.93
2019-05-30T16:14:58.118Z,25.57
2019-05-30T16:17:26.691Z,41.83
2019-05-30T16:19:58.208Z,29.40
2019-05-30T16:22:26.684Z,26.70
2019-05-30T16:24:55.027Z,27.87
2019-05-30T16:27:23.365Z,26.10
2019-05-30T16:29:52.180Z,26.37
2019-05-30T16:32:26.171Z,23.77
2019-05-30T16:34:54.956Z,23.13
2019-05-30T16:37:23.555Z,20.43
2019-05-30T16:40:05.415Z,19.73
2019-05-30T16:42:22.379Z,20.90
2019-05-30T16:44:50.831Z,21.43
2019-05-30T16:47:20.386Z,23.95
2019-05-30T16:49:48.927Z,40.17
2019-05-30T16:52:17.543Z,78.00
2019-05-30T16:54:46.706Z,99.87
2019-05-30T16:57:16.244Z,59.63
2019-05-30T16:59:45.867Z,44.80
2019-05-30T17:02:14.841Z,42.47
2019-05-30T17:04:43.278Z,38.97
2019-05-30T17:07:11.568Z,37.17
2019-05-30T17:09:40.318Z,35.57
2019-05-30T17:12:09.102Z,27.40
2019-05-30T17:14:37.468Z,43.83
2019-05-30T17:17:05.946Z,52.30
2019-05-30T17:19:34.966Z,73.80
2019-05-30T17:22:03.689Z,68.57
2019-05-30T17:24:32.548Z,63.63
2019-05-30T17:27:03.341Z,61.07
2019-05-30T17:29:50.422Z,57.70
2019-05-30T17:32:19.701Z,58.77
2019-05-30T17:34:48.365Z,57.00
2019-05-30T17:37:16.714Z,53.13
2019-05-30T17:39:45.267Z,52.87
2019-05-30T17:42:13.902Z,50.93
2019-05-30T17:44:42.352Z,51.60
2019-05-30T17:47:10.703Z,51.10
2019-05-30T17:49:39.020Z,50.03
2019-05-30T17:52:07.343Z,50.00
2019-05-30T17:54:38.441Z,47.90
2019-05-30T17:57:07.108Z,49.53
2019-05-30T17:59:35.689Z,46.50
2019-05-30T18:02:03.996Z,49.47
2019-05-30T18:04:32.296Z,47.37
2019-05-30T18:07:00.619Z,43.50
2019-05-30T18:09:31.071Z,43.70
2019-05-30T18:11:59.569Z,42.50
2019-05-30T18:14:29.181Z,43.03
2019-05-30T18:16:57.811Z,41.37
2019-05-30T18:19:27.342Z,40.20
2019-05-30T18:21:55.871Z,37.70
2019-05-30T18:24:25.610Z,37.13
2019-05-30T18:26:54.407Z,37.90
2019-05-30T18:29:23.827Z,37.50
2019-05-30T18:31:52.279Z,36.07
2019-05-30T18:34:20.610Z,36.30
2019-05-30T18:36:50.697Z,33.97
2019-05-30T18:39:19.368Z,34.87
2019-05-30T18:41:48.599Z,33.37
2019-05-30T18:44:16.889Z,30.83
2019-05-30T18:46:45.532Z,30.37
2019-05-30T18:49:14.122Z,42.27
2019-05-30T18:51:42.503Z,31.90
2019-05-30T18:54:11.324Z,32.00
2019-05-30T18:56:39.627Z,32.90
2019-05-30T18:59:07.942Z,33.30
2019-05-30T19:01:37.761Z,31.17
2019-05-30T19:04:07.879Z,31.10
2019-05-30T19:06:37.837Z,30.97
2019-05-30T19:09:09.826Z,28.73
2019-05-30T19:11:38.423Z,28.97
2019-05-30T19:14:07.116Z,27.77
2019-05-30T19:16:36.716Z,27.60
2019-05-30T19:19:06.135Z,29.77
2019-05-30T19:21:36.213Z,26.87
2019-05-30T19:24:06.241Z,26.00
2019-05-30T19:26:36.775Z,24.03
2019-05-30T19:29:05.828Z,23.53
2019-05-30T19:31:37.092Z,22.67
2019-05-30T19:34:05.809Z,22.63
2019-05-30T19:36:35.202Z,46.23
2019-05-30T19:39:05.506Z,29.00
2019-05-30T19:41:46.051Z,27.07
2019-05-30T19:44:04.058Z,28.43
2019-05-30T19:46:32.749Z,27.70
2019-05-30T19:49:01.776Z,28.03
2019-05-30T19:51:31.347Z,27.30
2019-05-30T19:54:00.236Z,26.30
2019-05-30T19:56:29.194Z,25.30
2019-05-30T19:58:58.305Z,25.93
2019-05-30T20:01:26.700Z,25.23
2019-05-30T20:03:56.654Z,26.27
2019-05-30T20:06:25.297Z,23.80
2019-05-30T20:08:55.778Z,23.63
2019-05-30T20:11:24.035Z,23.23
2019-05-30T20:13:52.823Z,25.23
2019-05-30T20:16:21.567Z,26.70
2019-05-30T20:18:50.177Z,29.30
2019-05-30T20:21:18.542Z,24.73
2019-05-30T20:23:54.545Z,26.87
2019-05-30T20:26:17.847Z,26.53
2019-05-30T20:28:47.375Z,26.07
2019-05-30T20:31:15.990Z,24.43
2019-05-30T20:33:44.663Z,27.40
2019-05-30T20:36:13.659Z,43.43
2019-05-30T20:38:42.914Z,112.23
2019-05-30T20:41:11.717Z,68.03
2019-05-30T20:43:41.024Z,59.63
2019-05-30T20:46:22.371Z,79.60
2019-05-30T20:48:41.040Z,205.83
2019-05-30T20:51:20.790Z,113.50
2019-05-30T20:53:41.221Z,122.60
2019-05-30T20:56:09.611Z,99.43
2019-05-30T20:58:38.279Z,84.87
2019-05-30T21:01:18.012Z,81.57
2019-05-30T21:03:46.365Z,138.83
2019-05-30T21:06:15.063Z,143.67
2019-05-30T21:08:43.390Z,122.07
2019-05-30T21:11:11.691Z,113.70
2019-05-30T21:13:40.356Z,87.47
2019-05-30T21:16:09.158Z,81.90
2019-05-30T21:18:37.768Z,87.37
2019-05-30T21:21:06.248Z,89.23
2019-05-30T21:23:36.201Z,93.00
2019-05-30T21:26:04.978Z,92.13
2019-05-30T21:28:33.311Z,88.13
2019-05-30T21:31:01.925Z,84.47
2019-05-30T21:33:30.642Z,82.23
2019-05-30T21:35:58.978Z,78.70
2019-05-30T21:38:27.292Z,79.43
2019-05-30T21:40:56.031Z,82.60
2019-05-30T21:43:24.655Z,71.33
2019-05-30T21:45:53.060Z,75.27
2019-05-30T21:48:21.734Z,75.47
2019-05-30T21:50:50.237Z,68.27
2019-05-30T21:53:19.081Z,67.80
2019-05-30T21:55:48.058Z,66.33
2019-05-30T21:58:16.658Z,246.90
2019-05-30T22:01:08.005Z,219.57
2019-05-30T22:03:36.666Z,195.77
2019-05-30T22:06:05.701Z,115.47
2019-05-30T22:08:34.122Z,113.70
2019-05-30T22:11:02.831Z,100.07
2019-05-30T22:13:31.533Z,101.75
2019-05-30T22:15:59.915Z,92.03
2019-05-30T22:18:28.242Z,97.43
2019-05-30T22:20:56.607Z,120.23
2019-05-30T22:23:25.090Z,114.83
2019-05-30T22:25:53.431Z,95.27
2019-05-30T22:28:22.109Z,84.73
2019-05-30T22:30:50.658Z,82.80
2019-05-30T22:33:19.462Z,80.93
2019-05-30T22:35:48.913Z,74.83
2019-05-30T22:38:17.326Z,75.80
2019-05-30T22:40:45.875Z,74.73
2019-05-30T22:43:24.782Z,65.23
2019-05-30T22:45:44.568Z,65.10
2019-05-30T22:48:12.861Z,58.20
2019-05-30T22:50:41.248Z,58.63
2019-05-30T22:53:09.901Z,56.10
2019-05-30T22:55:38.682Z,51.50
2019-05-30T22:58:07.035Z,53.20
2019-05-30T23:00:35.618Z,52.13
2019-05-30T23:03:03.937Z,50.00
2019-05-30T23:05:32.247Z,47.90
2019-05-30T23:08:00.543Z,47.23
2019-05-30T23:10:29.215Z,42.10
2019-05-30T23:12:57.506Z,41.87
2019-05-30T23:15:26.067Z,43.53
2019-05-30T23:17:54.762Z,41.87
2019-05-30T23:20:23.631Z,42.30
2019-05-30T23:22:53.026Z,40.57
2019-05-30T23:25:21.835Z,39.90
2019-05-30T23:27:51.429Z,38.13
2019-05-30T23:30:20.228Z,38.03
2019-05-30T23:32:50.420Z,54.03
2019-05-30T23:35:19.143Z,82.27
2019-05-30T23:37:48.477Z,69.00
2019-05-30T23:40:16.897Z,55.17
2019-05-30T23:42:45.498Z,45.73
2019-05-30T23:45:14.078Z,45.77
2019-05-30T23:47:42.380Z,47.00
2019-05-30T23:50:10.685Z,48.23
2019-05-30T23:52:38.975Z,46.00
2019-05-30T23:55:07.255Z,45.30
2019-05-30T23:57:35.583Z,43.10
